createdAt,value
2023-03-02T04:08:06.584Z,24.46
2023-03-02T04:09:06.593Z,24.46
2023-03-02T04:10:06.549Z,24.44
2023-03-02T04:11:06.531Z,24.46
2023-03-02T04:12:06.507Z,24.46
2023-03-02T04:13:06.492Z,24.44
2023-03-02T04:14:06.470Z,24.43
2023-03-02T04:15:06.458Z,24.44
2023-03-02T04:16:06.472Z,24.46
2023-03-02T04:17:06.426Z,24.42
2023-03-02T04:18:06.402Z,24.43
2023-03-02T04:19:06.387Z,24.44
2023-03-02T04:20:06.363Z,24.46
2023-03-02T04:21:06.355Z,24.44
2023-03-02T04:22:06.341Z,24.43
2023-03-02T04:23:06.303Z,24.43
2023-03-02T04:24:06.282Z,24.44
2023-03-02T04:25:06.257Z,24.43
2023-03-02T04:26:06.234Z,24.42
2023-03-02T04:27:06.210Z,24.42
2023-03-02T04:28:06.199Z,24.43
2023-03-02T04:29:06.183Z,24.46
2023-03-02T04:30:06.143Z,24.42
2023-03-02T04:31:06.150Z,24.43
2023-03-02T04:32:06.186Z,24.42
2023-03-02T04:33:06.103Z,24.43
2023-03-02T04:34:06.082Z,24.43
2023-03-02T04:35:06.059Z,24.42
2023-03-02T04:36:06.033Z,24.40
2023-03-02T04:37:06.022Z,24.40
2023-03-02T04:38:05.989Z,24.40
2023-03-02T04:39:05.986Z,24.42
2023-03-02T04:40:05.965Z,24.40
2023-03-02T04:42:05.929Z,24.39
2023-03-02T04:43:05.900Z,24.42
2023-03-02T04:44:05.968Z,24.40
2023-03-02T04:45:05.871Z,24.42
2023-03-02T04:46:05.953Z,24.43
2023-03-02T04:47:05.838Z,24.42
2023-03-02T04:48:05.817Z,24.44
2023-03-02T04:49:05.810Z,24.42
2023-03-02T04:50:05.822Z,24.44
2023-03-02T04:51:05.762Z,24.46
2023-03-02T04:52:05.779Z,24.46
2023-03-02T04:53:05.831Z,24.46
2023-03-02T04:54:05.694Z,24.46
2023-03-02T04:55:05.685Z,24.44
2023-03-02T04:56:05.678Z,24.46
2023-03-02T04:57:05.659Z,24.48
2023-03-02T04:58:05.638Z,24.46
2023-03-02T04:59:05.617Z,24.49
2023-03-02T05:00:05.598Z,24.48
2023-03-02T05:01:05.589Z,24.48
2023-03-02T05:02:05.615Z,24.48
2023-03-02T05:03:05.540Z,24.48
2023-03-02T05:04:05.582Z,24.46
2023-03-02T05:05:05.489Z,24.46
2023-03-02T05:06:05.476Z,24.46
2023-03-02T05:07:05.444Z,24.46
2023-03-02T05:08:05.427Z,24.46
2023-03-02T05:09:05.422Z,24.48
2023-03-02T05:10:05.373Z,24.46
2023-03-02T05:11:05.360Z,24.48
2023-03-02T05:12:05.327Z,24.46
2023-03-02T05:13:05.299Z,24.46
2023-03-02T05:14:05.280Z,24.46
2023-03-02T05:15:05.264Z,24.48
2023-03-02T05:16:05.306Z,24.43
2023-03-02T05:17:05.230Z,24.48
2023-03-02T05:18:05.184Z,24.49
2023-03-02T05:19:05.170Z,24.46
2023-03-02T05:20:05.143Z,24.46
2023-03-02T05:21:05.121Z,24.48
2023-03-02T05:22:05.102Z,24.49
2023-03-02T05:23:05.087Z,24.48
2023-03-02T05:24:05.176Z,24.46
2023-03-02T05:25:05.053Z,24.44
2023-03-02T05:26:05.042Z,24.48
2023-03-02T05:27:05.025Z,24.49
2023-03-02T05:28:05.011Z,24.50
2023-03-02T05:29:04.976Z,24.52
2023-03-02T05:30:04.956Z,24.49
2023-03-02T05:31:05.036Z,24.46
2023-03-02T05:32:04.953Z,24.48
2023-03-02T05:33:04.909Z,24.46
2023-03-02T05:34:04.906Z,24.48
2023-03-02T05:35:04.872Z,24.48
2023-03-02T05:36:04.931Z,24.48
2023-03-02T05:37:04.847Z,24.46
2023-03-02T05:38:04.823Z,24.49
2023-03-02T05:39:04.804Z,24.49
2023-03-02T05:40:04.802Z,24.46
2023-03-02T05:41:04.763Z,24.48
2023-03-02T05:42:04.744Z,24.48
2023-03-02T05:43:04.727Z,24.49
2023-03-02T05:44:04.707Z,24.46
2023-03-02T05:45:04.704Z,24.48
2023-03-02T05:46:04.680Z,24.46
2023-03-02T05:47:04.715Z,24.48
2023-03-02T05:48:04.649Z,24.48
2023-03-02T05:49:04.630Z,24.48
2023-03-02T05:50:04.601Z,24.48
2023-03-02T05:51:04.584Z,24.48
2023-03-02T05:52:04.566Z,24.44
2023-03-02T05:53:04.538Z,24.44
2023-03-02T05:54:04.510Z,24.48
2023-03-02T05:55:04.488Z,24.48
2023-03-02T05:56:04.470Z,24.48
2023-03-02T05:57:04.447Z,24.48
2023-03-02T05:58:04.418Z,24.48
2023-03-02T05:59:04.402Z,24.49
2023-03-02T06:00:04.384Z,24.48
2023-03-02T06:01:04.365Z,24.50
2023-03-02T06:02:04.410Z,24.49
2023-03-02T06:03:04.358Z,24.49
2023-03-02T06:04:04.313Z,24.46
2023-03-02T06:05:04.296Z,24.44
2023-03-02T06:06:04.270Z,24.46
2023-03-02T06:07:04.256Z,24.48
2023-03-02T06:08:04.231Z,24.46
2023-03-02T06:09:04.223Z,24.49
2023-03-02T06:10:04.199Z,24.48
2023-03-02T06:11:04.188Z,24.48
2023-03-02T06:12:04.163Z,24.49
2023-03-02T06:13:04.146Z,24.46
2023-03-02T06:14:04.122Z,24.43
2023-03-02T06:15:04.125Z,24.44
2023-03-02T06:16:04.122Z,24.48
2023-03-02T06:17:04.072Z,24.48
2023-03-02T06:18:04.058Z,24.46
2023-03-02T06:19:04.036Z,24.48
2023-03-02T06:20:04.012Z,24.46
2023-03-02T06:21:04.017Z,24.48
2023-03-02T06:22:03.970Z,24.49
2023-03-02T06:23:03.968Z,24.49
2023-03-02T06:24:03.937Z,24.48
2023-03-02T06:25:03.911Z,24.46
2023-03-02T06:26:03.900Z,24.46
2023-03-02T06:27:03.876Z,24.46
2023-03-02T06:28:03.841Z,24.43
2023-03-02T06:29:03.826Z,24.46
2023-03-02T06:30:03.816Z,24.49
2023-03-02T06:31:03.791Z,24.44
2023-03-02T06:32:03.877Z,24.50
2023-03-02T06:33:03.764Z,24.56
2023-03-02T06:34:03.750Z,24.59
2023-03-02T06:35:03.827Z,24.59
2023-03-02T06:36:03.762Z,24.56
2023-03-02T06:37:03.689Z,24.60
2023-03-02T06:38:03.677Z,24.60
2023-03-02T06:39:03.629Z,24.69
2023-03-02T06:40:03.603Z,24.66
2023-03-02T06:41:03.566Z,24.69
2023-03-02T06:42:03.538Z,24.70
2023-03-02T06:43:04.392Z,24.71
2023-03-02T06:44:03.493Z,24.70
2023-03-02T06:45:03.460Z,24.70
2023-03-02T06:46:03.508Z,24.70
2023-03-02T06:47:03.411Z,24.73
2023-03-02T06:48:03.400Z,24.73
2023-03-02T06:49:03.369Z,24.83
2023-03-02T06:50:03.328Z,24.83
2023-03-02T06:51:03.338Z,24.84
2023-03-02T06:52:03.279Z,24.84
2023-03-02T06:53:03.273Z,24.86
2023-03-02T06:54:03.236Z,24.86
2023-03-02T06:55:03.217Z,24.86
2023-03-02T06:56:03.173Z,24.83
2023-03-02T06:57:03.146Z,24.83
2023-03-02T06:58:03.147Z,24.84
2023-03-02T06:59:03.092Z,24.90
2023-03-02T07:00:03.073Z,24.94
2023-03-02T07:01:03.092Z,25.01
2023-03-02T07:02:03.015Z,25.01
2023-03-02T07:03:02.979Z,25.05
2023-03-02T07:04:03.141Z,25.03
2023-03-02T07:05:02.987Z,25.07
2023-03-02T07:06:02.908Z,25.11
2023-03-02T07:07:02.883Z,25.13
2023-03-02T07:08:02.856Z,25.14
2023-03-02T07:09:02.823Z,25.15
2023-03-02T07:10:02.818Z,25.18
2023-03-02T07:11:02.788Z,25.18
2023-03-02T07:12:02.782Z,25.17
2023-03-02T07:13:02.761Z,25.22
2023-03-02T07:14:02.695Z,25.21
2023-03-02T07:15:02.679Z,25.24
2023-03-02T07:16:02.651Z,25.25
2023-03-02T07:17:02.684Z,25.25
2023-03-02T07:18:02.588Z,25.29
2023-03-02T07:19:02.558Z,25.31
2023-03-02T07:20:02.532Z,25.33
2023-03-02T07:21:02.547Z,25.35
2023-03-02T07:22:02.461Z,25.33
2023-03-02T07:23:02.457Z,25.38
2023-03-02T07:24:02.427Z,25.42
2023-03-02T07:25:02.402Z,25.39
2023-03-02T07:26:02.365Z,25.43
2023-03-02T08:29:00.297Z,25.73
2023-03-02T09:18:19.841Z,25.63
2023-03-02T09:18:58.833Z,25.63
2023-03-02T09:19:58.813Z,25.62
2023-03-02T09:20:58.792Z,25.58
2023-03-02T09:21:58.756Z,25.56
2023-03-02T09:22:58.720Z,25.54
2023-03-02T09:23:58.696Z,25.56
2023-03-02T09:24:58.650Z,25.56
2023-03-02T09:25:58.615Z,25.54
2023-03-02T09:26:58.591Z,25.52
2023-03-02T09:27:58.571Z,25.56
2023-03-02T09:28:58.523Z,25.53
2023-03-02T09:29:58.489Z,25.54
2023-03-02T09:30:58.463Z,25.52
2023-03-02T09:31:58.606Z,25.53
2023-03-02T09:32:58.540Z,25.54
2023-03-02T09:33:58.376Z,25.53
2023-03-02T09:34:58.365Z,25.60
2023-03-02T09:35:58.325Z,25.62
2023-03-02T09:36:58.297Z,25.62
2023-03-02T09:37:58.412Z,25.60
2023-03-02T09:38:58.239Z,25.62
2023-03-02T09:39:58.212Z,25.62
2023-03-02T09:40:58.204Z,25.62
2023-03-02T09:41:58.169Z,25.59
2023-03-02T09:42:58.132Z,25.62
2023-03-02T09:44:00.013Z,25.59
2023-03-02T09:44:58.075Z,25.60
2023-03-02T09:45:58.124Z,25.54
2023-03-02T09:46:58.046Z,25.58
2023-03-02T09:47:58.012Z,25.58
2023-03-02T09:48:57.975Z,25.54
2023-03-02T09:49:57.947Z,25.59
2023-03-02T09:50:57.910Z,25.48
2023-03-02T09:51:57.875Z,25.60
2023-03-02T09:52:57.902Z,25.68
2023-03-02T09:53:57.945Z,25.65
2023-03-02T09:54:57.794Z,25.68
2023-03-02T09:55:57.790Z,25.69
2023-03-02T09:56:57.808Z,25.73
2023-03-02T09:57:57.712Z,25.73
2023-03-02T09:58:57.691Z,25.77
2023-03-02T10:00:03.771Z,25.80
2023-03-02T10:00:58.630Z,25.81
2023-03-02T10:01:57.585Z,25.84
2023-03-02T10:03:05.090Z,25.83
2023-03-02T10:03:58.599Z,25.83
2023-03-02T10:04:57.489Z,25.83
2023-03-02T10:05:57.453Z,25.79
2023-03-02T10:06:57.415Z,25.80
2023-03-02T10:07:59.298Z,25.83
2023-03-02T10:08:57.356Z,25.83
2023-03-02T10:09:57.319Z,25.84
2023-03-02T10:10:57.380Z,25.86
2023-03-02T10:11:57.256Z,25.90
2023-03-02T10:12:57.249Z,25.96
2023-03-02T10:13:57.214Z,25.94
2023-03-02T10:14:57.183Z,25.97
2023-03-02T10:15:57.193Z,25.96
2023-03-02T10:16:57.182Z,25.97
2023-03-02T10:17:57.154Z,25.97
2023-03-02T10:18:57.110Z,25.97
2023-03-02T10:19:57.031Z,25.98
2023-03-02T10:20:56.983Z,26.03
2023-03-02T10:21:56.948Z,26.03
2023-03-02T10:22:56.905Z,26.01
2023-03-02T10:23:56.863Z,26.01
2023-03-02T10:24:56.830Z,26.00
2023-03-02T10:25:56.796Z,26.03
2023-03-02T10:26:56.764Z,26.01
2023-03-02T10:27:56.770Z,26.05
2023-03-02T10:28:56.678Z,26.04
2023-03-02T10:29:56.756Z,26.07
2023-03-02T10:30:56.632Z,26.01
2023-03-02T10:31:56.575Z,26.09
2023-03-02T10:32:56.544Z,26.09
2023-03-02T10:33:56.565Z,26.11
2023-03-02T10:34:56.495Z,26.13
2023-03-02T10:35:56.417Z,26.13
2023-03-02T10:36:56.419Z,26.18
2023-03-02T10:37:56.342Z,26.18
2023-03-02T10:38:56.352Z,26.18
2023-03-02T10:39:56.258Z,26.11
2023-03-02T10:40:56.240Z,26.14
2023-03-02T10:41:56.209Z,26.14
2023-03-02T10:42:56.326Z,26.18
2023-03-02T10:43:56.089Z,26.21
2023-03-02T10:44:56.042Z,26.24
2023-03-02T10:45:56.062Z,26.14
2023-03-02T10:46:55.979Z,26.08
2023-03-02T10:47:55.922Z,26.01
2023-03-02T10:48:55.883Z,25.94
2023-03-02T10:49:55.852Z,25.93
2023-03-02T10:50:55.859Z,25.88
2023-03-02T10:51:55.789Z,25.87
2023-03-02T10:52:59.945Z,25.87
2023-03-02T10:53:55.693Z,25.84
2023-03-02T10:54:55.649Z,25.84
2023-03-02T10:55:55.614Z,25.84
2023-03-02T10:56:55.628Z,25.80
2023-03-02T10:57:55.548Z,25.81
2023-03-02T10:58:56.496Z,25.77
2023-03-02T10:59:55.461Z,25.76
2023-03-02T11:00:55.489Z,25.76
2023-03-02T11:01:55.446Z,25.75
2023-03-02T11:02:55.388Z,25.76
2023-03-02T11:03:55.360Z,25.73
2023-03-02T11:04:57.468Z,25.76
2023-03-02T11:05:55.459Z,25.70
2023-03-02T11:06:55.354Z,25.76
2023-03-02T11:07:55.299Z,25.70
2023-03-02T11:08:55.240Z,25.72
2023-03-02T11:09:55.211Z,25.72
2023-03-02T11:10:57.049Z,25.70
2023-03-02T11:11:56.279Z,25.73
2023-03-02T11:12:55.146Z,25.70
2023-03-02T11:13:55.162Z,25.70
2023-03-02T11:14:55.096Z,25.70
2023-03-02T11:15:55.104Z,25.70
2023-03-02T11:16:55.105Z,25.70
2023-03-02T11:17:55.003Z,25.70
2023-03-02T11:18:54.974Z,25.69
2023-03-02T11:19:54.932Z,25.73
2023-03-02T11:20:54.882Z,25.70
2023-03-02T11:21:54.845Z,25.75
2023-03-02T11:22:54.825Z,25.75
2023-03-02T11:23:54.793Z,25.72
2023-03-02T11:24:54.777Z,25.72
2023-03-02T11:25:54.809Z,25.75
2023-03-02T11:26:54.711Z,25.72
2023-03-02T11:27:54.685Z,25.72
2023-03-02T11:28:54.681Z,25.73
2023-03-02T11:29:54.651Z,25.75
2023-03-02T11:30:54.694Z,25.75
2023-03-02T11:31:54.706Z,25.80
2023-03-02T11:32:54.633Z,25.77
2023-03-02T11:33:56.200Z,25.76
2023-03-02T11:34:54.519Z,25.79
2023-03-02T11:35:54.525Z,25.83
2023-03-02T11:36:54.563Z,25.84
2023-03-02T11:37:54.425Z,25.81
2023-03-02T11:38:54.398Z,25.87
2023-03-02T11:39:55.769Z,25.83
2023-03-02T11:40:54.458Z,25.90
2023-03-02T11:41:54.354Z,25.93
2023-03-02T11:42:54.290Z,25.97
2023-03-02T11:43:54.263Z,26.00
2023-03-02T11:44:54.237Z,25.98
2023-03-02T11:45:54.196Z,25.98
2023-03-02T11:46:54.222Z,25.97
2023-03-02T11:48:01.182Z,26.00
2023-03-02T11:48:55.117Z,26.05
2023-03-02T11:49:54.040Z,26.00
2023-03-02T11:50:54.028Z,25.98
2023-03-02T11:51:58.449Z,26.01
2023-03-02T11:52:54.971Z,26.03
2023-03-02T11:53:53.975Z,26.03
2023-03-02T11:54:53.903Z,26.03
2023-03-02T11:55:53.873Z,26.04
2023-03-02T11:56:53.853Z,26.05
2023-03-02T11:57:53.822Z,26.08
2023-03-02T11:58:53.767Z,26.11
2023-03-02T11:59:53.747Z,26.04
2023-03-02T12:00:53.687Z,26.07
2023-03-02T12:01:53.723Z,26.08
2023-03-02T12:02:53.641Z,26.05
2023-03-02T12:03:53.610Z,26.09
2023-03-02T12:04:53.600Z,26.08
2023-03-02T12:05:53.549Z,26.08
2023-03-02T12:06:53.537Z,26.07
2023-03-02T12:07:53.480Z,26.07
2023-03-02T12:08:53.458Z,26.09
2023-03-02T12:09:53.419Z,26.09
2023-03-02T12:10:53.395Z,26.13
2023-03-02T12:11:53.371Z,26.13
2023-03-02T12:12:53.318Z,26.11
2023-03-02T12:13:53.293Z,26.09
2023-03-02T12:14:53.243Z,26.11
2023-03-02T12:15:53.244Z,26.08
2023-03-02T12:16:53.296Z,26.11
2023-03-02T12:17:53.254Z,26.09
2023-03-02T12:18:53.139Z,26.08
2023-03-02T12:19:53.145Z,26.09
2023-03-02T12:20:53.090Z,26.09
2023-03-02T12:21:53.093Z,26.11
2023-03-02T12:22:53.042Z,26.07
2023-03-02T12:23:53.040Z,26.11
2023-03-02T12:24:52.996Z,26.09
2023-03-02T12:25:52.972Z,26.09
2023-03-02T12:26:52.967Z,26.13
2023-03-02T12:27:52.948Z,26.13
2023-03-02T12:28:52.902Z,26.08
2023-03-02T12:29:52.874Z,26.15
2023-03-02T12:30:52.845Z,26.13
2023-03-02T12:31:53.035Z,26.17
2023-03-02T12:32:52.781Z,26.14
2023-03-02T12:33:52.781Z,26.15
2023-03-02T12:34:52.737Z,26.13
2023-03-02T12:35:52.704Z,26.08
2023-03-02T12:36:52.755Z,26.07
2023-03-02T12:37:52.654Z,26.09
2023-03-02T12:38:52.650Z,26.04
2023-03-02T12:39:52.619Z,26.07
2023-03-02T12:40:52.586Z,26.05
2023-03-02T12:41:52.560Z,26.03
2023-03-02T12:42:52.518Z,25.98
2023-03-02T12:43:52.528Z,26.00
2023-03-02T12:44:52.542Z,26.00
2023-03-02T12:45:52.537Z,25.94
2023-03-02T12:46:52.475Z,25.94
2023-03-02T12:47:52.604Z,25.94
2023-03-02T12:48:52.694Z,25.91
2023-03-02T12:49:52.368Z,25.93
2023-03-02T12:50:52.322Z,25.91
2023-03-02T12:51:52.464Z,25.87
2023-03-02T12:52:52.261Z,25.88
2023-03-02T12:53:52.229Z,25.88
2023-03-02T12:54:52.207Z,25.88
2023-03-02T12:55:52.186Z,25.87
2023-03-02T12:56:52.150Z,25.87
2023-03-02T12:57:52.102Z,25.87
2023-03-02T12:58:52.072Z,25.87
2023-03-02T12:59:52.047Z,25.86
2023-03-02T13:00:52.070Z,25.87
2023-03-02T13:01:51.988Z,25.86
2023-03-02T13:02:51.962Z,25.87
2023-03-02T13:03:51.989Z,25.86
2023-03-02T13:04:51.904Z,25.87
2023-03-02T13:05:51.874Z,25.87
2023-03-02T13:06:51.865Z,25.86
2023-03-02T13:07:51.814Z,25.86
2023-03-02T13:08:51.836Z,25.88
2023-03-02T13:09:56.677Z,25.87
2023-03-02T13:10:52.738Z,25.86
2023-03-02T13:11:51.687Z,25.83
2023-03-02T13:12:51.655Z,25.86
2023-03-02T13:13:51.749Z,25.84
2023-03-02T13:14:51.623Z,25.84
2023-03-02T13:15:51.612Z,25.83
2023-03-02T13:16:51.592Z,25.84
2023-03-02T13:17:51.514Z,25.84
2023-03-02T13:18:51.486Z,25.86
2023-03-02T13:19:51.486Z,25.84
2023-03-02T13:20:51.451Z,25.83
2023-03-02T13:21:51.422Z,25.84
2023-03-02T13:22:51.434Z,25.86
2023-03-02T13:23:51.388Z,25.87
2023-03-02T13:24:51.350Z,25.87
2023-03-02T13:25:51.317Z,25.88
2023-03-02T13:26:51.342Z,25.87
2023-03-02T13:27:51.371Z,25.87
2023-03-02T13:28:51.258Z,25.90
2023-03-02T13:29:51.255Z,25.87
2023-03-02T13:30:51.263Z,25.91
2023-03-02T13:31:51.250Z,25.90
2023-03-02T13:32:51.196Z,25.94
2023-03-02T13:33:51.160Z,25.94
2023-03-02T13:34:51.130Z,25.97
2023-03-02T13:35:51.107Z,25.98
2023-03-02T13:36:51.096Z,26.01
2023-03-02T13:37:51.108Z,26.00
2023-03-02T13:38:51.033Z,25.98
2023-03-02T13:39:51.014Z,25.94
2023-03-02T13:40:50.999Z,25.98
2023-03-02T13:41:50.965Z,26.01
2023-03-02T13:42:50.934Z,26.00
2023-03-02T13:43:50.908Z,25.97
2023-03-02T13:44:50.870Z,26.01
2023-03-02T13:45:50.918Z,26.00
2023-03-02T13:46:50.817Z,26.01
2023-03-02T13:47:50.775Z,25.98
2023-03-02T13:48:55.083Z,25.96
2023-03-02T13:49:51.767Z,25.94
2023-03-02T13:50:50.689Z,25.96
2023-03-02T13:51:50.671Z,25.94
2023-03-02T13:52:50.650Z,25.97
2023-03-02T13:53:50.620Z,26.03
2023-03-02T13:54:50.575Z,26.09
2023-03-02T13:55:50.547Z,26.14
2023-03-02T13:56:50.512Z,26.11
2023-03-02T13:57:50.512Z,26.09
2023-03-02T13:58:50.449Z,26.04
2023-03-02T13:59:50.422Z,26.01
2023-03-02T14:00:50.420Z,26.01
2023-03-02T14:01:50.378Z,26.00
2023-03-02T14:02:50.347Z,25.98
2023-03-02T14:03:50.315Z,25.96
2023-03-02T14:04:50.439Z,25.98
2023-03-02T14:05:50.262Z,26.00
2023-03-02T14:06:50.248Z,26.00
2023-03-02T14:07:50.204Z,26.01
2023-03-02T14:08:50.212Z,25.97
2023-03-02T14:09:50.126Z,25.98
2023-03-02T14:10:50.122Z,25.97
2023-03-02T14:11:50.078Z,26.01
2023-03-02T14:12:50.027Z,25.96
2023-03-02T14:13:49.995Z,25.98
2023-03-02T14:14:49.991Z,25.98
2023-03-02T14:15:50.028Z,25.97
2023-03-02T14:16:49.925Z,25.94
2023-03-02T14:17:49.890Z,25.94
2023-03-02T14:18:49.854Z,25.90
2023-03-02T14:19:49.837Z,25.91
2023-03-02T14:20:49.831Z,25.88
2023-03-02T14:21:49.767Z,25.86
2023-03-02T14:22:49.727Z,25.88
2023-03-02T14:23:49.787Z,25.86
2023-03-02T14:24:49.689Z,25.84
2023-03-02T14:25:49.647Z,25.79
2023-03-02T14:26:49.754Z,25.84
2023-03-02T14:27:49.580Z,25.81
2023-03-02T14:28:59.850Z,25.80
2023-03-02T14:29:50.528Z,25.80
2023-03-02T14:30:49.563Z,25.79
2023-03-02T14:31:49.472Z,25.77
2023-03-02T14:32:49.444Z,25.79
2023-03-02T14:33:49.407Z,25.75
2023-03-02T14:34:49.381Z,25.75
2023-03-02T14:35:49.403Z,25.76
2023-03-02T14:36:49.349Z,25.76
2023-03-02T14:37:49.327Z,25.76
2023-03-02T14:38:49.286Z,25.72
2023-03-02T14:39:49.262Z,25.75
2023-03-02T14:40:49.261Z,25.73
2023-03-02T14:41:53.699Z,25.72
2023-03-02T14:42:50.202Z,25.72
2023-03-02T14:43:49.171Z,25.70
2023-03-02T14:44:49.133Z,25.70
2023-03-02T14:45:49.107Z,25.70
2023-03-02T14:46:49.093Z,25.70
2023-03-02T14:47:49.148Z,25.68
2023-03-02T14:48:49.019Z,25.69
2023-03-02T14:49:49.038Z,25.66
2023-03-02T14:50:48.959Z,25.66
2023-03-02T14:51:48.928Z,25.65
2023-03-02T14:52:48.917Z,25.65
2023-03-02T14:53:48.867Z,25.66
2023-03-02T14:54:48.848Z,25.66
2023-03-02T14:55:48.796Z,25.65
2023-03-02T14:56:50.566Z,25.63
2023-03-02T14:57:48.735Z,25.66
2023-03-02T14:58:48.697Z,25.66
2023-03-02T14:59:48.681Z,25.63
2023-03-02T15:00:48.669Z,25.63
2023-03-02T15:01:48.726Z,25.65
2023-03-02T15:02:48.728Z,25.65
2023-03-02T15:03:48.584Z,25.63
2023-03-02T15:04:48.540Z,25.65
2023-03-02T15:06:00.350Z,25.65
2023-03-02T15:06:49.493Z,25.62
2023-03-02T15:07:48.456Z,25.63
2023-03-02T15:08:48.439Z,25.63
2023-03-02T15:09:48.424Z,25.62
2023-03-02T15:10:48.380Z,25.66
2023-03-02T15:11:48.381Z,25.66
2023-03-02T15:12:48.358Z,25.65
2023-03-02T15:13:48.322Z,25.65
2023-03-02T15:14:48.299Z,25.63
2023-03-02T15:15:48.304Z,25.65
2023-03-02T15:16:48.252Z,25.63
2023-03-02T15:17:48.223Z,25.60
2023-03-02T15:18:48.185Z,25.63
2023-03-02T15:19:48.166Z,25.60
2023-03-02T15:20:48.125Z,25.62
2023-03-02T15:21:48.097Z,25.62
2023-03-02T15:22:48.083Z,25.63
2023-03-02T15:23:48.038Z,25.62
2023-03-02T15:24:47.997Z,25.62
2023-03-02T15:25:47.972Z,25.60
2023-03-02T15:26:47.940Z,25.60
2023-03-02T15:27:47.928Z,25.59
2023-03-02T15:28:47.893Z,25.58
2023-03-02T15:29:47.852Z,25.59
2023-03-02T15:30:47.830Z,25.59
2023-03-02T15:31:47.859Z,25.56
2023-03-02T15:32:47.792Z,25.54
2023-03-02T15:33:47.766Z,25.56
2023-03-02T15:34:47.725Z,25.54
2023-03-02T15:35:47.750Z,25.52
2023-03-02T15:36:47.764Z,25.52
2023-03-02T15:37:47.649Z,25.49
2023-03-02T15:38:47.624Z,25.53
2023-03-02T15:39:47.609Z,25.50
2023-03-02T15:40:47.575Z,25.52
2023-03-02T15:41:47.551Z,25.49
2023-03-02T15:42:47.521Z,25.49
2023-03-02T15:43:47.494Z,25.49
2023-03-02T15:44:47.468Z,25.49
2023-03-02T15:45:47.444Z,25.48
2023-03-02T15:46:47.447Z,25.48
2023-03-02T15:47:47.391Z,25.45
2023-03-02T15:48:47.348Z,25.46
2023-03-02T15:49:47.335Z,25.48
2023-03-02T15:50:47.314Z,25.48
2023-03-02T15:51:47.285Z,25.45
2023-03-02T15:52:47.253Z,25.48
2023-03-02T15:53:47.223Z,25.46
2023-03-02T15:54:47.185Z,25.45
2023-03-02T15:55:47.156Z,25.46
2023-03-02T15:56:47.130Z,25.45
2023-03-02T15:57:47.105Z,25.42
2023-03-02T15:58:47.079Z,25.42
2023-03-02T15:59:47.061Z,25.42
2023-03-02T16:00:47.065Z,25.42
2023-03-02T16:01:47.003Z,25.43
2023-03-02T16:02:47.056Z,25.42
2023-03-02T16:03:46.956Z,25.41
2023-03-02T16:04:46.936Z,25.38
2023-03-02T16:05:46.917Z,25.41
2023-03-02T16:06:46.884Z,25.39
2023-03-02T16:07:46.844Z,25.39
2023-03-02T16:08:46.825Z,25.38
2023-03-02T16:09:46.785Z,25.41
2023-03-02T16:10:46.777Z,25.39
2023-03-02T16:11:46.750Z,25.36
2023-03-02T16:12:46.711Z,25.36
2023-03-02T16:13:46.681Z,25.36
2023-03-02T16:14:46.660Z,25.38
2023-03-02T16:15:46.622Z,25.35
2023-03-02T16:16:46.674Z,25.38
2023-03-02T16:17:46.572Z,25.36
2023-03-02T16:18:46.539Z,25.38
2023-03-02T16:19:46.526Z,25.35
2023-03-02T16:20:46.487Z,25.36
2023-03-02T16:21:46.463Z,25.36
2023-03-02T16:22:46.443Z,25.36
2023-03-02T16:23:46.417Z,25.35
2023-03-02T16:24:46.392Z,25.32
2023-03-02T16:25:46.359Z,25.35
2023-03-02T16:26:46.335Z,25.35
2023-03-02T16:27:46.303Z,25.31
2023-03-02T16:28:46.284Z,25.33
2023-03-02T16:29:46.247Z,25.33
2023-03-02T16:30:46.222Z,25.31
2023-03-02T16:31:46.232Z,25.32
2023-03-02T16:32:46.216Z,25.29
2023-03-02T16:33:46.162Z,25.32
2023-03-02T16:34:46.126Z,25.35
2023-03-02T16:35:46.099Z,25.32
2023-03-02T16:36:46.071Z,25.31
2023-03-02T16:37:46.043Z,25.32
2023-03-02T16:38:46.028Z,25.32
2023-03-02T16:39:45.999Z,25.29
2023-03-02T16:40:45.973Z,25.29
2023-03-02T16:41:45.950Z,25.29
2023-03-02T16:42:45.922Z,25.28
2023-03-02T16:43:45.904Z,25.26
2023-03-02T16:44:45.891Z,25.28
2023-03-02T16:45:45.869Z,25.29
2023-03-02T16:46:45.868Z,25.26
2023-03-02T16:47:45.820Z,25.29
2023-03-02T16:48:45.793Z,25.25
2023-03-02T16:49:45.774Z,25.26
2023-03-02T16:50:45.764Z,25.26
2023-03-02T16:51:45.730Z,25.25
2023-03-02T16:52:45.718Z,25.28
2023-03-02T16:53:45.733Z,25.25
2023-03-02T16:54:45.682Z,25.25
2023-03-02T16:55:45.657Z,25.22
2023-03-02T16:56:45.637Z,25.25
2023-03-02T16:57:45.632Z,25.25
2023-03-02T16:58:45.606Z,25.24
2023-03-02T16:59:45.598Z,25.26
2023-03-02T17:00:45.634Z,25.28
2023-03-02T17:01:45.621Z,25.26
2023-03-02T17:02:45.522Z,25.24
2023-03-02T17:03:45.499Z,25.24
2023-03-02T17:04:45.483Z,25.24
2023-03-02T17:05:45.462Z,25.22
2023-03-02T17:06:59.631Z,25.25
2023-03-02T17:07:45.424Z,25.24
2023-03-02T17:08:45.416Z,25.22
2023-03-02T17:09:45.432Z,25.21
2023-03-02T17:10:45.398Z,25.24
2023-03-02T17:11:45.382Z,25.21
2023-03-02T17:12:45.381Z,25.22
2023-03-02T17:13:45.368Z,25.19
2023-03-02T17:14:45.355Z,25.21
2023-03-02T17:15:45.346Z,25.22
2023-03-02T17:16:45.327Z,25.21
2023-03-02T17:17:45.320Z,25.19
2023-03-02T17:18:45.311Z,25.21
2023-03-02T17:19:45.281Z,25.21
2023-03-02T17:20:45.274Z,25.22
2023-03-02T17:21:45.232Z,25.19
2023-03-02T17:22:45.210Z,25.18
2023-03-02T17:23:45.194Z,25.19
2023-03-02T17:24:45.184Z,25.18
2023-03-02T17:25:45.161Z,25.19
2023-03-02T17:26:45.129Z,25.22
2023-03-02T17:27:45.107Z,25.21
2023-03-02T17:28:45.104Z,25.19
2023-03-02T17:29:45.061Z,25.18
2023-03-02T17:30:45.049Z,25.19
2023-03-02T17:31:45.012Z,25.17
2023-03-02T17:32:44.992Z,25.19
2023-03-02T17:33:44.967Z,25.19
2023-03-02T17:34:44.966Z,25.18
2023-03-02T17:35:44.945Z,25.17
2023-03-02T17:36:44.909Z,25.19
2023-03-02T17:37:44.923Z,25.17
2023-03-02T17:38:44.867Z,25.17
2023-03-02T17:39:44.840Z,25.18
2023-03-02T17:40:44.824Z,25.18
2023-03-02T17:41:44.797Z,25.18
2023-03-02T17:42:44.785Z,25.19
2023-03-02T17:43:44.767Z,25.17
2023-03-02T17:44:44.751Z,25.17
2023-03-02T17:45:44.740Z,25.17
2023-03-02T17:46:44.709Z,25.15
2023-03-02T17:47:44.697Z,25.17
2023-03-02T17:48:44.675Z,25.15
2023-03-02T17:49:44.655Z,25.17
2023-03-02T17:50:44.645Z,25.17
2023-03-02T17:51:44.624Z,25.15
2023-03-02T17:52:44.593Z,25.13
2023-03-02T17:53:44.571Z,25.15
2023-03-02T17:54:44.565Z,25.14
2023-03-02T17:55:44.521Z,25.14
2023-03-02T17:56:44.500Z,25.11
2023-03-02T17:57:44.471Z,25.13
2023-03-02T17:58:45.533Z,25.13
2023-03-02T17:59:44.415Z,25.14
2023-03-02T18:00:44.394Z,25.13
2023-03-02T18:01:44.371Z,25.13
2023-03-02T18:02:44.340Z,25.14
2023-03-02T18:03:44.455Z,25.11
2023-03-02T18:04:44.322Z,25.10
2023-03-02T18:05:44.278Z,25.11
2023-03-02T18:06:44.256Z,25.11
2023-03-02T18:07:44.226Z,25.11
2023-03-02T18:08:44.211Z,25.13
2023-03-02T18:09:44.189Z,25.13
2023-03-02T18:10:44.180Z,25.08
2023-03-02T18:11:44.138Z,25.10
2023-03-02T18:12:44.243Z,25.10
2023-03-02T18:13:44.105Z,25.11
2023-03-02T18:14:44.095Z,25.11
2023-03-02T18:15:44.102Z,25.10
2023-03-02T18:16:44.040Z,25.10
2023-03-02T18:17:44.015Z,25.10
2023-03-02T18:18:44.003Z,25.05
2023-03-02T18:19:43.980Z,25.07
2023-03-02T18:20:43.964Z,25.08
2023-03-02T18:21:43.944Z,25.08
2023-03-02T18:22:43.920Z,25.07
2023-03-02T18:23:43.894Z,25.08
2023-03-02T18:24:43.875Z,25.07
2023-03-02T18:25:43.863Z,25.07
2023-03-02T18:26:43.816Z,25.07
2023-03-02T18:27:43.849Z,25.05
2023-03-02T18:28:43.751Z,25.05
2023-03-02T18:29:43.744Z,25.07
2023-03-02T18:30:43.713Z,25.08
2023-03-02T18:31:43.752Z,25.07
2023-03-02T18:32:43.667Z,25.05
2023-03-02T18:33:43.642Z,25.07
2023-03-02T18:34:43.626Z,25.05
2023-03-02T18:35:43.610Z,25.08
2023-03-02T18:36:43.563Z,25.08
2023-03-02T18:37:43.551Z,25.05
2023-03-02T18:38:43.528Z,25.07
2023-03-02T18:39:43.500Z,25.04
2023-03-02T18:40:43.497Z,25.05
2023-03-02T18:41:43.464Z,25.05
2023-03-02T18:42:43.449Z,25.05
2023-03-02T18:43:43.432Z,25.04
2023-03-02T18:44:43.425Z,25.03
2023-03-02T18:45:43.422Z,25.03
2023-03-02T18:46:43.399Z,25.03
2023-03-02T18:47:45.966Z,25.01
2023-03-02T18:48:43.337Z,25.03
2023-03-02T18:49:43.309Z,25.04
2023-03-02T18:50:43.279Z,25.01